createdAt,value
2016-12-09T00:00:22.902Z,911.15
2016-12-09T00:01:23.019Z,911.75
2016-12-09T00:02:22.904Z,912.91
2016-12-09T00:03:23.104Z,913.77
2016-12-09T00:04:22.964Z,914.77
2016-12-09T00:05:23.038Z,914.08
2016-12-09T00:06:22.848Z,914.73
2016-12-09T00:07:23.019Z,915.09
2016-12-09T00:08:22.849Z,915.52
2016-12-09T00:09:23.015Z,916.84
2016-12-09T00:10:22.906Z,916.98
2016-12-09T00:11:22.928Z,916.64
2016-12-09T00:12:22.866Z,916.72
2016-12-09T00:13:22.989Z,917.69
2016-12-09T00:14:22.843Z,917.99
2016-12-09T00:15:23.025Z,916.8
2016-12-09T00:16:22.917Z,918.37
2016-12-09T00:17:23.030Z,919.41
2016-12-09T00:18:22.821Z,919.72
2016-12-09T00:19:22.958Z,920.04
2016-12-09T00:20:22.857Z,920.44
2016-12-09T00:21:23.015Z,920.59
2016-12-09T00:22:23.042Z,921.05
2016-12-09T00:23:22.900Z,922.16
2016-12-09T00:24:23.116Z,922.46
2016-12-09T00:25:22.912Z,921.72
2016-12-09T00:26:23.025Z,922.07
2016-12-09T00:27:23.067Z,923.11
2016-12-09T00:28:22.950Z,923.74
2016-12-09T00:29:22.927Z,924.46
2016-12-09T00:30:22.918Z,924.72
2016-12-09T00:31:22.971Z,924.49
2016-12-09T00:32:22.990Z,924.92
2016-12-09T00:33:22.910Z,925.28
2016-12-09T00:34:22.982Z,924.1
2016-12-09T00:35:22.970Z,925.06
2016-12-09T00:36:22.884Z,924.38
2016-12-09T00:37:22.989Z,924.98
2016-12-09T00:38:22.935Z,926.14
2016-12-09T00:39:22.923Z,925.11
2016-12-09T00:40:22.971Z,926.29
2016-12-09T00:41:23.013Z,926.02
2016-12-09T00:42:22.896Z,925.61
2016-12-09T00:43:23.002Z,925.06
2016-12-09T00:44:23.635Z,926.33
2016-12-09T00:48:53.150Z,927.04
2016-12-09T00:49:53.201Z,927
2016-12-09T00:50:53.263Z,927.47
2016-12-09T00:51:53.299Z,927.56
2016-12-09T00:52:53.126Z,928.47
2016-12-09T00:53:53.306Z,928.11
2016-12-09T00:54:53.173Z,928.3
2016-12-09T00:55:53.213Z,929.25
2016-12-09T00:56:53.155Z,928.39
2016-12-09T00:57:53.200Z,928.59
2016-12-09T00:58:53.182Z,929.57
2016-12-09T00:59:53.174Z,929.76
2016-12-09T01:00:53.138Z,930.71
2016-12-09T01:01:53.253Z,931.22
2016-12-09T01:02:53.119Z,930.44
2016-12-09T01:03:53.162Z,930.31
2016-12-09T01:04:53.171Z,930.16
2016-12-09T01:05:53.231Z,929.21
2016-12-09T01:06:53.206Z,929.47
2016-12-09T01:07:53.256Z,930.66
2016-12-09T01:08:53.224Z,930.43
2016-12-09T01:09:53.190Z,930.58
2016-12-09T01:10:53.209Z,930.95
2016-12-09T01:11:53.255Z,931.8
2016-12-09T01:12:53.179Z,930.87
2016-12-09T01:13:53.287Z,930.86
2016-12-09T01:14:53.169Z,931.72
2016-12-09T01:15:53.199Z,932.17
2016-12-09T01:16:53.150Z,932.04
2016-12-09T01:17:53.348Z,932.76
2016-12-09T01:18:53.200Z,933.53
2016-12-09T01:19:53.252Z,933.36
2016-12-09T01:20:53.168Z,933.66
2016-12-09T01:21:53.311Z,934.55
2016-12-09T01:22:53.139Z,934.87
2016-12-09T01:23:53.215Z,933.96
2016-12-09T01:24:53.177Z,934.26
2016-12-09T01:25:53.223Z,935.6
2016-12-09T01:26:53.179Z,934.59
2016-12-09T01:27:53.251Z,933.92
2016-12-09T01:28:53.191Z,933.72
2016-12-09T01:29:53.182Z,934.42
2016-12-09T01:30:53.181Z,934.81
2016-12-09T01:31:53.183Z,935.84
2016-12-09T01:32:53.136Z,936.12
2016-12-09T01:33:53.296Z,935.08
2016-12-09T01:34:53.216Z,935.22
2016-12-09T01:35:53.267Z,935.86
2016-12-09T01:36:53.271Z,935.02
2016-12-09T01:37:53.218Z,934.99
2016-12-09T01:38:53.304Z,934.48
2016-12-09T01:39:53.275Z,934.88
2016-12-09T01:40:53.177Z,936.54
2016-12-09T01:41:53.180Z,935.9
2016-12-09T01:42:53.180Z,935.19
2016-12-09T01:43:53.278Z,935.84
2016-12-09T01:44:53.195Z,936.24
2016-12-09T01:45:53.155Z,937.05
2016-12-09T01:46:53.251Z,936.99
2016-12-09T01:47:53.286Z,937.56
2016-12-09T01:48:53.243Z,937.35
2016-12-09T01:49:53.270Z,937.29
2016-12-09T01:50:53.179Z,937.85
2016-12-09T01:51:53.254Z,939.53
2016-12-09T01:52:53.207Z,939.24
2016-12-09T01:53:53.480Z,939.74
2016-12-09T01:54:53.210Z,939.57
2016-12-09T01:55:53.373Z,940.25
2016-12-09T01:56:53.202Z,940.48
2016-12-09T01:57:53.327Z,941.21
2016-12-09T01:58:53.292Z,940.42
2016-12-09T01:59:53.284Z,940.97
2016-12-09T02:00:53.285Z,941.94
2016-12-09T02:01:53.283Z,940.9
2016-12-09T02:02:53.214Z,941.26
2016-12-09T02:03:53.325Z,941.79
2016-12-09T02:04:53.236Z,943.29
2016-12-09T02:05:53.345Z,942.23
2016-12-09T02:06:53.238Z,943.46
2016-12-09T02:07:53.318Z,943.61
2016-12-09T02:08:53.297Z,942.76
2016-12-09T02:09:53.250Z,942.91
2016-12-09T02:10:53.238Z,943.43
2016-12-09T02:11:53.233Z,943.28
2016-12-09T02:12:53.210Z,944.02
2016-12-09T02:13:53.288Z,944.02
2016-12-09T02:14:53.201Z,943.55
2016-12-09T02:15:53.318Z,942.87
2016-12-09T02:16:53.234Z,943.79
2016-12-09T02:17:53.247Z,942.76
2016-12-09T02:18:53.272Z,942.62
2016-12-09T02:19:53.337Z,944.07
2016-12-09T02:20:53.230Z,944.84
2016-12-09T02:21:53.296Z,943.57
2016-12-09T02:22:53.209Z,944.41
2016-12-09T02:23:53.300Z,944.28
2016-12-09T02:24:53.283Z,943.59
2016-12-09T02:25:53.303Z,944.72
2016-12-09T02:26:53.216Z,945.6
2016-12-09T02:27:53.232Z,945.1
2016-12-09T02:28:53.284Z,946.5
2016-12-09T02:29:53.346Z,944.05
2016-12-09T02:30:53.224Z,945.16
2016-12-09T02:31:53.290Z,944.6
2016-12-09T02:32:53.266Z,944.78
2016-12-09T02:33:53.320Z,944.38
2016-12-09T02:34:53.273Z,944.91
2016-12-09T02:35:53.239Z,944.05
2016-12-09T02:36:53.234Z,944.42
2016-12-09T02:37:53.233Z,946.72
2016-12-09T02:38:53.275Z,946.38
2016-12-09T02:39:53.266Z,946.05
2016-12-09T02:40:53.244Z,947.54
2016-12-09T02:41:53.280Z,947.16
2016-12-09T02:42:53.242Z,947.94
2016-12-09T02:43:53.340Z,948.84
2016-12-09T02:44:53.261Z,948
2016-12-09T02:45:53.315Z,948
2016-12-09T02:47:03.202Z,947.03
2016-12-09T02:47:53.324Z,947.53
2016-12-09T02:48:53.269Z,947.53
2016-12-09T02:49:53.289Z,947.43
2016-12-09T02:50:53.240Z,946.44
2016-12-09T02:51:53.296Z,948.25
2016-12-09T02:52:53.291Z,947.4
2016-12-09T02:53:53.295Z,947.04
2016-12-09T02:54:53.279Z,947.49
2016-12-09T02:55:53.358Z,946.92
2016-12-09T02:56:53.333Z,947.21
2016-12-09T02:57:53.289Z,947.36
2016-12-09T02:58:53.292Z,945.1
2016-12-09T02:59:53.268Z,947.15
2016-12-09T03:00:53.297Z,946.45
2016-12-09T03:01:53.290Z,947.57
2016-12-09T03:02:53.309Z,947.1
2016-12-09T03:03:53.309Z,946.28
2016-12-09T03:04:53.273Z,945.56
2016-12-09T03:05:53.295Z,946.25
2016-12-09T03:06:53.260Z,946.16
2016-12-09T03:07:53.347Z,945.51
2016-12-09T03:08:53.323Z,945.81
2016-12-09T03:09:53.348Z,945.72
2016-12-09T03:10:53.279Z,947.28
2016-12-09T03:11:53.269Z,947.51
2016-12-09T03:12:53.236Z,946.82
2016-12-09T03:13:53.333Z,947.16
2016-12-09T03:14:53.292Z,947.05
2016-12-09T03:15:53.422Z,947.87
2016-12-09T03:16:53.308Z,948.15
2016-12-09T03:17:53.380Z,949.57
2016-12-09T03:18:53.341Z,947.81
2016-12-09T03:19:53.370Z,948.42
2016-12-09T03:20:53.267Z,949.28
2016-12-09T03:21:53.311Z,948.3
2016-12-09T03:22:53.316Z,949.44
2016-12-09T03:23:53.320Z,949.77
2016-12-09T03:24:53.294Z,949.59
2016-12-09T03:25:53.350Z,950.27
2016-12-09T03:26:53.401Z,949.08
2016-12-09T03:27:53.362Z,949.05
2016-12-09T03:28:53.347Z,949.92
2016-12-09T03:29:53.291Z,949.73
2016-12-09T03:30:53.268Z,949.71
2016-12-09T03:31:53.331Z,948.75
2016-12-09T03:32:53.316Z,949.82
2016-12-09T03:33:53.349Z,950.2
2016-12-09T03:34:53.344Z,949.33
2016-12-09T03:35:53.374Z,949.2
2016-12-09T03:36:53.295Z,948.96
2016-12-09T03:37:53.301Z,949.45
2016-12-09T03:38:53.360Z,949.62
2016-12-09T03:39:53.295Z,949.72
2016-12-09T03:40:53.307Z,949.61
2016-12-09T03:41:53.329Z,950.1
2016-12-09T03:42:53.327Z,950.67
2016-12-09T03:43:53.389Z,950.48
2016-12-09T03:44:53.367Z,950.55
2016-12-09T03:45:53.328Z,950.24
2016-12-09T03:46:53.328Z,950.49
2016-12-09T03:47:53.303Z,951.03
2016-12-09T03:48:53.357Z,950.82
2016-12-09T03:49:53.301Z,951.11
2016-12-09T03:50:53.311Z,951.37
2016-12-09T03:51:53.312Z,951.93
2016-12-09T03:52:53.373Z,951.45
2016-12-09T03:53:53.478Z,952.48
2016-12-09T03:54:53.291Z,953.23
2016-12-09T03:55:53.338Z,953.43
2016-12-09T03:56:53.344Z,953.65
2016-12-09T03:57:53.349Z,954.46
2016-12-09T03:58:53.321Z,953.97
2016-12-09T03:59:53.328Z,955.09
2016-12-09T04:00:53.849Z,954.71
2016-12-09T04:01:53.368Z,954.88
2016-12-09T04:02:53.351Z,956
2016-12-09T04:03:53.366Z,955.87
2016-12-09T04:04:53.329Z,955.96
2016-12-09T04:05:53.370Z,956.32
2016-12-09T04:06:53.372Z,956.45
2016-12-09T04:07:53.344Z,956.32
2016-12-09T04:08:53.337Z,956.25
2016-12-09T04:09:53.402Z,955.78
2016-12-09T04:10:53.372Z,955.06
2016-12-09T04:11:53.322Z,955.97
2016-12-09T04:12:53.335Z,956.56
2016-12-09T04:13:53.386Z,956.81
2016-12-09T04:14:53.289Z,957.08
2016-12-09T04:15:53.386Z,957.45
2016-12-09T04:16:53.346Z,956.43
2016-12-09T04:17:53.395Z,957.82
2016-12-09T04:18:53.330Z,954.79
2016-12-09T04:19:53.345Z,955.38
2016-12-09T04:20:53.335Z,956.55
2016-12-09T04:21:53.355Z,957.05
2016-12-09T04:22:53.330Z,957
2016-12-09T04:23:53.396Z,955.92
2016-12-09T04:24:53.376Z,956.64
2016-12-09T04:25:53.448Z,957.08
2016-12-09T04:26:53.324Z,958.4
2016-12-09T04:27:53.362Z,956.86
2016-12-09T04:28:53.388Z,957.01
2016-12-09T04:29:53.384Z,958.56
2016-12-09T04:30:53.372Z,958.58
2016-12-09T04:31:53.385Z,959.45
2016-12-09T04:32:53.383Z,957.99
2016-12-09T04:33:53.350Z,957.66
2016-12-09T04:34:53.413Z,957.43
2016-12-09T04:35:53.397Z,957.14
2016-12-09T04:36:53.405Z,958.32
2016-12-09T04:37:53.339Z,957.49
2016-12-09T04:38:53.396Z,958
2016-12-09T04:39:53.432Z,958.48
2016-12-09T04:40:53.343Z,958.47
2016-12-09T04:41:53.439Z,958.22
2016-12-09T04:42:53.414Z,958.29
2016-12-09T04:43:53.474Z,958.02
2016-12-09T04:44:53.374Z,957.6
2016-12-09T04:45:53.453Z,956.87
2016-12-09T04:46:53.376Z,957.96
2016-12-09T04:47:53.419Z,957.97
2016-12-09T04:48:53.367Z,957.59
2016-12-09T04:49:53.440Z,957.79
2016-12-09T04:50:53.483Z,957.25
2016-12-09T04:51:53.414Z,956.88
2016-12-09T04:52:53.363Z,955.89
2016-12-09T04:53:53.421Z,956.31
2016-12-09T04:54:53.402Z,956.97
2016-12-09T04:55:53.481Z,956.59
2016-12-09T04:56:53.345Z,957.51
2016-12-09T04:57:53.417Z,956.53
2016-12-09T04:58:53.429Z,956.59
2016-12-09T04:59:53.414Z,956.97
2016-12-09T05:00:53.380Z,956.57
2016-12-09T05:01:53.434Z,955.99
2016-12-09T05:02:53.392Z,956.67
2016-12-09T05:03:53.495Z,956.49
2016-12-09T05:04:53.417Z,956.59
2016-12-09T05:05:53.432Z,957.33
2016-12-09T05:06:53.387Z,957.64
2016-12-09T05:07:53.450Z,957.42
2016-12-09T05:08:53.379Z,957.12
2016-12-09T05:09:53.375Z,957.69
2016-12-09T05:10:53.446Z,956.91
2016-12-09T05:11:53.475Z,956.74
2016-12-09T05:12:53.427Z,958.28
2016-12-09T05:13:53.400Z,956.19
2016-12-09T05:14:53.371Z,957.09
2016-12-09T05:15:53.504Z,957.74
2016-12-09T05:16:53.420Z,958.22
2016-12-09T05:17:53.438Z,958.52
2016-12-09T05:18:53.396Z,957.4
2016-12-09T05:19:53.442Z,957.28
2016-12-09T05:20:53.410Z,957.53
2016-12-09T05:21:53.420Z,956.94
2016-12-09T05:22:53.456Z,957.63
2016-12-09T05:23:53.533Z,957.57
2016-12-09T05:24:53.447Z,957.02
2016-12-09T05:25:53.441Z,958.79
2016-12-09T05:26:53.430Z,958.08
2016-12-09T05:27:55.531Z,959.59
2016-12-09T05:28:53.422Z,958.86
2016-12-09T05:29:53.457Z,960.1
2016-12-09T05:30:53.499Z,960.33
2016-12-09T05:31:53.423Z,958.57
2016-12-09T05:32:57.129Z,958.67
2016-12-09T05:33:53.974Z,958.94
2016-12-09T05:34:53.487Z,960.49
2016-12-09T05:35:53.512Z,959.7
2016-12-09T05:36:53.451Z,961.12
2016-12-09T05:37:53.435Z,963.34
2016-12-09T05:38:53.511Z,962.22
2016-12-09T05:39:53.475Z,962.08
2016-12-09T05:40:53.494Z,962.67
2016-12-09T05:41:53.451Z,961.34
2016-12-09T05:42:53.450Z,960.31
2016-12-09T05:43:53.486Z,961.06
2016-12-09T05:44:53.457Z,961.61
2016-12-09T05:45:53.469Z,963.61
2016-12-09T05:46:53.439Z,963.04
2016-12-09T05:47:53.488Z,962.76
2016-12-09T05:48:53.479Z,963.67
2016-12-09T05:49:53.515Z,962.87
2016-12-09T05:50:53.496Z,963.13
2016-12-09T05:51:53.557Z,964.23
2016-12-09T05:52:53.578Z,962.79
2016-12-09T05:53:53.486Z,963.68
2016-12-09T05:54:53.576Z,964.11
2016-12-09T05:55:53.548Z,964.93
2016-12-09T05:56:53.491Z,965.74
2016-12-09T05:57:53.536Z,965.35
2016-12-09T05:58:53.547Z,965.42
2016-12-09T05:59:53.467Z,965.15
2016-12-09T06:00:53.505Z,964.97
2016-12-09T06:01:53.467Z,965.07
2016-12-09T06:02:53.539Z,964.23
2016-12-09T06:03:53.455Z,965.52
2016-12-09T06:04:53.512Z,965.55
2016-12-09T06:05:53.481Z,966.45
2016-12-09T06:06:53.514Z,965.89
2016-12-09T06:07:53.465Z,966.8
2016-12-09T06:08:53.469Z,966.2
2016-12-09T06:09:53.502Z,964.75
2016-12-09T06:10:53.480Z,964.72
2016-12-09T06:11:53.510Z,965.69
2016-12-09T06:12:53.596Z,965.37
2016-12-09T06:13:54.105Z,965.72
2016-12-09T06:14:53.590Z,964.85
2016-12-09T06:15:53.614Z,963.86
2016-12-09T06:16:53.520Z,965.2
2016-12-09T06:17:53.523Z,964.87
2016-12-09T06:18:53.548Z,965.14
2016-12-09T06:19:53.535Z,966.17
2016-12-09T06:20:53.535Z,966.59
2016-12-09T06:21:53.595Z,965.69
2016-12-09T06:22:53.556Z,966.47
2016-12-09T06:23:53.549Z,966.71
2016-12-09T06:24:53.471Z,966.21
2016-12-09T06:25:53.516Z,964.68
2016-12-09T06:26:53.559Z,965.73
2016-12-09T06:27:53.556Z,966.08
2016-12-09T06:28:53.542Z,965.73
2016-12-09T06:29:53.517Z,966.88
2016-12-09T06:30:53.485Z,967.24
2016-12-09T06:31:53.557Z,968.33
2016-12-09T06:32:53.528Z,968.65
2016-12-09T06:33:53.520Z,968.51
2016-12-09T06:34:53.490Z,967.56
2016-12-09T06:35:53.536Z,968.29
2016-12-09T06:36:53.520Z,966.36
2016-12-09T06:37:53.535Z,965.61
2016-12-09T06:38:53.507Z,965.48
2016-12-09T06:39:54.765Z,965.75
2016-12-09T06:40:53.620Z,966.22
2016-12-09T06:41:53.507Z,964.95
2016-12-09T06:42:53.538Z,965.87
2016-12-09T06:43:53.586Z,967.15
2016-12-09T06:44:53.567Z,966.13
2016-12-09T06:45:54.095Z,965.83
2016-12-09T06:46:53.535Z,965.29
2016-12-09T06:47:53.537Z,966.6
2016-12-09T06:48:53.555Z,966.69
2016-12-09T06:49:53.612Z,965.32
2016-12-09T06:50:53.587Z,965.22
2016-12-09T06:51:53.592Z,964.65
2016-12-09T06:52:53.603Z,965.28
2016-12-09T06:53:53.555Z,965.62
2016-12-09T06:54:53.524Z,963.76
2016-12-09T06:55:53.659Z,964.34
2016-12-09T06:56:53.691Z,963.79
2016-12-09T06:57:54.136Z,962.91
2016-12-09T06:58:53.503Z,961.9
2016-12-09T06:59:53.580Z,962.78
2016-12-09T07:00:53.555Z,962.57
2016-12-09T07:01:54.587Z,960.43
2016-12-09T07:02:53.533Z,959.82
2016-12-09T07:03:53.565Z,959.25
2016-12-09T07:04:53.656Z,959.67
2016-12-09T07:05:53.628Z,959.42
2016-12-09T07:06:53.633Z,959.54
2016-12-09T07:07:53.548Z,958.48
2016-12-09T07:08:53.547Z,957.96
2016-12-09T07:09:53.571Z,958.58
2016-12-09T07:10:53.599Z,957.14
2016-12-09T07:11:53.533Z,957
2016-12-09T07:12:53.638Z,957.02
2016-12-09T07:13:53.532Z,958.37
2016-12-09T07:14:53.576Z,956.92
2016-12-09T07:15:53.624Z,956.21
2016-12-09T07:16:53.613Z,956.44
2016-12-09T07:17:53.579Z,956.64
2016-12-09T07:18:53.592Z,957.17
2016-12-09T07:19:53.607Z,956.93
2016-12-09T07:20:53.575Z,958.51
2016-12-09T07:21:53.590Z,957.42
2016-12-09T07:22:53.580Z,958.07
2016-12-09T07:23:53.534Z,956.29
2016-12-09T07:24:53.554Z,958.45
2016-12-09T07:25:53.602Z,957.06
2016-12-09T07:26:53.536Z,959.14
2016-12-09T07:27:53.584Z,960.68
2016-12-09T07:28:53.588Z,959.19
2016-12-09T07:29:53.569Z,960.71
2016-12-09T07:30:53.618Z,960.72
2016-12-09T07:31:53.600Z,961.16
2016-12-09T07:32:53.596Z,961.81
2016-12-09T07:33:53.555Z,959.75
2016-12-09T07:34:53.583Z,958.96
2016-12-09T07:35:53.684Z,959.36
2016-12-09T07:36:53.658Z,959.6
2016-12-09T07:37:53.581Z,959.24
2016-12-09T07:38:53.587Z,958.8
2016-12-09T07:39:53.616Z,958.7
2016-12-09T07:40:53.637Z,958.43
2016-12-09T07:41:53.650Z,958.87
2016-12-09T07:42:53.600Z,959.97
2016-12-09T07:43:53.608Z,959.99
2016-12-09T07:44:53.639Z,961.39
2016-12-09T07:45:53.639Z,961.35
2016-12-09T07:46:53.613Z,959.46
2016-12-09T07:47:53.600Z,960.44
2016-12-09T07:48:53.754Z,961.19
2016-12-09T07:49:53.757Z,961.08
2016-12-09T07:50:53.591Z,963.03
2016-12-09T07:51:53.605Z,962.35
2016-12-09T07:52:53.642Z,962.36
2016-12-09T07:53:53.609Z,962.8
2016-12-09T07:54:53.718Z,964.01
2016-12-09T07:55:53.589Z,962.77
2016-12-09T07:56:53.626Z,962.25
2016-12-09T07:57:53.622Z,961.36
2016-12-09T07:58:53.656Z,961.96
2016-12-09T07:59:53.652Z,963.97
2016-12-09T08:00:53.625Z,963.28
2016-12-09T08:01:53.604Z,963.77
2016-12-09T08:02:53.619Z,963.36
2016-12-09T08:03:53.605Z,963.23
2016-12-09T08:04:53.583Z,962.54
2016-12-09T08:05:53.635Z,963.4
2016-12-09T08:06:53.708Z,965.67
2016-12-09T08:07:53.688Z,965.94
2016-12-09T08:08:53.629Z,963.39
2016-12-09T08:09:53.704Z,964.08
2016-12-09T08:10:53.641Z,966.76
2016-12-09T08:11:53.692Z,968.22
2016-12-09T08:12:53.639Z,966.88
2016-12-09T08:13:53.858Z,967.15
2016-12-09T08:14:53.608Z,966.58
2016-12-09T08:15:53.633Z,967.11
2016-12-09T08:16:53.857Z,967.93
2016-12-09T08:17:53.630Z,967.14
2016-12-09T08:18:53.608Z,968.03
2016-12-09T08:19:54.135Z,968.16
2016-12-09T08:20:53.693Z,968.73
2016-12-09T08:21:53.662Z,970.63
2016-12-09T08:22:53.715Z,972.59
2016-12-09T08:23:53.688Z,974.27
2016-12-09T08:24:53.644Z,974.64
2016-12-09T08:25:53.647Z,976.15
2016-12-09T08:26:53.671Z,977.22
2016-12-09T08:27:53.786Z,978.02
2016-12-09T08:28:53.719Z,977.37
2016-12-09T08:29:53.640Z,976.93
2016-12-09T08:30:53.701Z,978.39
2016-12-09T08:31:53.656Z,979.72
2016-12-09T08:32:53.716Z,981.01
2016-12-09T08:33:53.684Z,981.89
2016-12-09T08:34:53.664Z,982.75
2016-12-09T08:35:53.665Z,985.67
2016-12-09T08:36:53.663Z,985.21
2016-12-09T08:37:53.670Z,986.07
2016-12-09T08:38:53.693Z,985.85
2016-12-09T08:39:53.660Z,983.05
2016-12-09T08:40:53.720Z,985.28
2016-12-09T08:41:53.842Z,985.15
2016-12-09T08:42:53.784Z,986.12
2016-12-09T08:43:53.804Z,987.49
2016-12-09T08:44:53.740Z,989.76
2016-12-09T08:45:53.755Z,988.61
2016-12-09T08:46:53.690Z,985.55
2016-12-09T08:47:53.690Z,985.01
2016-12-09T08:48:53.688Z,986.32
2016-12-09T08:49:53.803Z,987.98
2016-12-09T08:50:53.666Z,986.57
2016-12-09T08:51:53.682Z,989.09
2016-12-09T08:52:53.752Z,990.17
2016-12-09T08:53:53.694Z,990.62
2016-12-09T08:54:53.791Z,992.62
2016-12-09T08:55:53.696Z,993.55
2016-12-09T08:56:53.711Z,991.47
2016-12-09T08:57:53.735Z,990.86
2016-12-09T08:58:53.738Z,989.23
2016-12-09T08:59:53.725Z,988.36
2016-12-09T09:00:53.796Z,988.04
2016-12-09T09:01:53.645Z,986.89
2016-12-09T09:02:53.706Z,985.54
2016-12-09T09:03:53.704Z,986.55
2016-12-09T09:04:53.800Z,985.19
2016-12-09T09:05:53.721Z,986.82
2016-12-09T09:06:53.707Z,985.29
2016-12-09T09:07:53.689Z,985.53
2016-12-09T09:08:53.732Z,983.95
2016-12-09T09:09:53.756Z,984.68
2016-12-09T09:10:53.731Z,985.15
2016-12-09T09:11:53.755Z,985.71
2016-12-09T09:12:53.895Z,986.48
2016-12-09T09:13:53.686Z,986.88
2016-12-09T09:14:53.707Z,984.87
2016-12-09T09:15:53.866Z,987.9
2016-12-09T09:16:53.785Z,988.72
2016-12-09T09:17:53.723Z,988.06
2016-12-09T09:18:53.849Z,985.57
2016-12-09T09:19:53.750Z,986.64
2016-12-09T09:20:53.915Z,987.55
2016-12-09T09:21:53.735Z,990.22
2016-12-09T09:22:53.788Z,991.3
2016-12-09T09:23:53.752Z,992.32
2016-12-09T09:24:53.750Z,992.61
2016-12-09T09:25:53.764Z,993.61
2016-12-09T09:26:53.780Z,991.18
2016-12-09T09:27:53.777Z,991.27
2016-12-09T09:28:53.799Z,988.03
2016-12-09T09:29:53.855Z,985.95
2016-12-09T09:30:53.702Z,988.02
2016-12-09T09:31:53.714Z,988.14
2016-12-09T09:32:53.726Z,990.24
2016-12-09T09:33:53.742Z,990.61
2016-12-09T09:34:53.739Z,991.84
2016-12-09T09:35:53.846Z,991.11
2016-12-09T09:36:53.777Z,991.09
2016-12-09T09:37:53.766Z,991.95
2016-12-09T09:38:53.712Z,991.26
2016-12-09T09:39:53.820Z,991.27
2016-12-09T09:40:53.833Z,992.51
2016-12-09T09:41:53.781Z,991.27
2016-12-09T09:42:53.766Z,991.73
2016-12-09T09:43:53.798Z,991.79
2016-12-09T09:44:53.781Z,993.45
2016-12-09T09:45:53.790Z,994.32
2016-12-09T09:46:53.746Z,994.08
2016-12-09T09:47:53.825Z,993.95
2016-12-09T09:48:53.808Z,994.11
2016-12-09T09:49:53.826Z,994.96
2016-12-09T09:50:53.737Z,995.78
2016-12-09T09:51:53.777Z,996.72
2016-12-09T09:52:53.749Z,996.8
2016-12-09T09:53:53.858Z,998.36
2016-12-09T09:54:53.813Z,997.03
2016-12-09T09:55:53.744Z,998.19
2016-12-09T09:56:53.717Z,999.94
2016-12-09T09:57:53.807Z,997.51
2016-12-09T09:58:53.788Z,998.9
2016-12-09T09:59:53.807Z,999.43
2016-12-09T10:00:54.043Z,1000.64
2016-12-09T10:01:53.910Z,1002.4
2016-12-09T10:02:53.781Z,1001.99
2016-12-09T10:03:53.877Z,1002.01
2016-12-09T10:04:53.841Z,1002.54
2016-12-09T10:05:53.864Z,1000.84
2016-12-09T10:06:54.389Z,1002.92
2016-12-09T10:07:53.814Z,1003.75
2016-12-09T10:08:53.762Z,1004.37
2016-12-09T10:09:53.888Z,1006.23
2016-12-09T10:10:53.858Z,1005.55
2016-12-09T10:11:53.932Z,1004.24
2016-12-09T10:12:53.840Z,1006.05
2016-12-09T10:13:53.774Z,1005.91
2016-12-09T10:14:53.800Z,1005.72
2016-12-09T10:15:53.781Z,1004.35
2016-12-09T10:16:53.795Z,1003.76
2016-12-09T10:17:53.801Z,1008.53
2016-12-09T10:18:53.808Z,1009.11
2016-12-09T10:19:53.904Z,1010.57
2016-12-09T10:20:53.781Z,1013.5
2016-12-09T10:21:53.779Z,1013.08
2016-12-09T10:22:53.800Z,1013.89
2016-12-09T10:23:53.800Z,1012.43
2016-12-09T10:24:53.826Z,1015.92
2016-12-09T10:25:53.807Z,1012.35
2016-12-09T10:26:53.787Z,1015.46
2016-12-09T10:27:53.788Z,1016.67
2016-12-09T10:28:53.809Z,1017.62
2016-12-09T10:29:53.862Z,1015.92
2016-12-09T10:30:53.801Z,1014.62
2016-12-09T10:31:53.819Z,1013.5
2016-12-09T10:32:53.860Z,1014.43
2016-12-09T10:33:53.859Z,1016.93
2016-12-09T10:34:53.885Z,1018.19
2016-12-09T10:35:53.837Z,1017.04
2016-12-09T10:36:53.797Z,1016.39
2016-12-09T10:37:53.931Z,1018.84
2016-12-09T10:38:53.921Z,1019.36
2016-12-09T10:39:53.949Z,1018.15
2016-12-09T10:40:53.812Z,1016.74
2016-12-09T10:41:53.801Z,1019.08
2016-12-09T10:42:53.843Z,1019.21
2016-12-09T10:43:54.909Z,1019.32
2016-12-09T10:44:53.832Z,1015.41
2016-12-09T10:45:53.835Z,1018.91
2016-12-09T10:46:54.016Z,1018.61
2016-12-09T10:47:53.962Z,1018.72
2016-12-09T10:48:54.457Z,1018.09
2016-12-09T10:49:54.346Z,1017.57
2016-12-09T10:50:54.156Z,1018.34
2016-12-09T10:51:55.055Z,1022.06
2016-12-09T10:52:56.417Z,1022.61
2016-12-09T10:53:56.540Z,1024.94
2016-12-09T10:54:54.752Z,1027.56
2016-12-09T10:55:56.536Z,1028.3
2016-12-09T10:56:57.205Z,1028.36
2016-12-09T10:57:56.355Z,1030.34
2016-12-09T10:58:55.488Z,1033.24
2016-12-09T10:59:54.661Z,1035.28
2016-12-09T11:00:56.857Z,1037.29
2016-12-09T11:01:56.435Z,1038.2
2016-12-09T11:02:57.152Z,1037.5
2016-12-09T11:03:57.256Z,1036.72
2016-12-09T11:04:56.647Z,1038.13
2016-12-09T11:05:55.895Z,1037.92
2016-12-09T11:06:55.182Z,1039.55
2016-12-09T11:07:54.900Z,1040.93
2016-12-09T11:08:54.290Z,1040.49
2016-12-09T11:10:17.762Z,1041.87
2016-12-09T11:10:55.702Z,1044.32
2016-12-09T11:11:55.865Z,1046.35
2016-12-09T11:13:43.920Z,1051.42
2016-12-09T11:14:54.390Z,1058.39
2016-12-09T11:16:26.700Z,1061.14
2016-12-09T11:17:25.713Z,1062.3
2016-12-09T11:18:56.495Z,1069.29
2016-12-09T11:20:00.363Z,1067.36
2016-12-09T11:20:59.662Z,1068.8
2016-12-09T11:22:00.386Z,1067.42
2016-12-09T11:23:01.320Z,1068.19
2016-12-09T11:24:00.586Z,1067.42
2016-12-09T11:25:00.587Z,1068.07
2016-12-09T11:26:00.483Z,1067.8
2016-12-09T11:27:00.685Z,1067.56
2016-12-09T11:28:32.027Z,1068.77
2016-12-09T11:30:30.682Z,1070.07
2016-12-09T11:31:45.206Z,1068.16
2016-12-09T11:32:53.545Z,1066.64
2016-12-09T11:33:53.538Z,1066.2
2016-12-09T11:34:53.921Z,1065.51
2016-12-09T11:35:54.053Z,1061.54
2016-12-09T11:36:56.081Z,1062.86
2016-12-09T11:37:53.589Z,1062.7
2016-12-09T11:39:01.448Z,1063.61
2016-12-09T11:40:11.250Z,1063.69
2016-12-09T11:41:40.630Z,1065.96
2016-12-09T11:43:36.291Z,1068.83
2016-12-09T11:44:28.506Z,1073.77
2016-12-09T11:45:45.185Z,1078.46
2016-12-09T11:46:28.935Z,1083.26
2016-12-09T11:47:29.423Z,1083.96
2016-12-09T11:48:39.401Z,1085.14
2016-12-09T11:49:27.700Z,1088.14
2016-12-09T11:50:49.333Z,1088.68
2016-12-09T11:53:38.811Z,1093.72
2016-12-09T12:04:04.381Z,1101.17
2016-12-09T12:05:24.588Z,1105.4
2016-12-09T12:06:27.727Z,1112.03
2016-12-09T12:08:16.543Z,1115.73
2016-12-09T12:09:10.951Z,1117.93
2016-12-09T12:10:50.137Z,1117.61
2016-12-09T12:12:51.541Z,1117.81
2016-12-09T12:13:29.537Z,1117.4
2016-12-09T12:15:48.904Z,1116.25
2016-12-09T12:17:38.945Z,1118.24
2016-12-09T12:18:07.654Z,1118.55
2016-12-09T12:28:06.462Z,1118.75
2016-12-09T12:28:43.468Z,1113.88
2016-12-09T12:29:43.259Z,1115.86
2016-12-09T12:30:44.699Z,1116.22
2016-12-09T12:31:42.115Z,1110.75
2016-12-09T12:33:21.553Z,1109.71
2016-12-09T12:35:28.199Z,1113.41
2016-12-09T12:36:20.659Z,1116.49
2016-12-09T12:37:29.069Z,1115.96
2016-12-09T12:39:58.534Z,1113.65
2016-12-09T12:40:56.838Z,1112.18
2016-12-09T12:41:59.203Z,1112.43
2016-12-09T12:42:57.851Z,1116.72
2016-12-09T12:45:31.261Z,1119.36
2016-12-09T12:46:36.888Z,1119.58
2016-12-09T12:47:41.454Z,1117.65
2016-12-09T13:00:03.347Z,1134.64
2016-12-09T13:01:01.845Z,1133.99
2016-12-09T13:02:01.935Z,1135.35
2016-12-09T13:03:02.019Z,1133.55
2016-12-09T13:04:02.277Z,1132.61
2016-12-09T13:05:02.088Z,1133.52
2016-12-09T13:06:02.091Z,1130.53
2016-12-09T13:07:02.014Z,1126.79
2016-12-09T13:08:02.196Z,1127.48
2016-12-09T13:09:02.274Z,1125.99
2016-12-09T13:10:02.128Z,1126.38
2016-12-09T13:11:02.175Z,1123.91
2016-12-09T13:12:02.240Z,1123.09
2016-12-09T13:13:01.991Z,1120.51
2016-12-09T13:14:02.157Z,1118.67
2016-12-09T13:15:02.002Z,1119.7
2016-12-09T13:16:02.203Z,1116.49